MST,Max TemperatureF,Mean TemperatureF,Min TemperatureF,Max Dew PointF,MeanDew PointF,Min DewpointF,Max Humidity, Mean Humidity, Min Humidity, Max Sea Level PressureIn, Mean Sea Level PressureIn, Min Sea Level PressureIn, Max VisibilityMiles, Mean VisibilityMiles, Min VisibilityMiles, Max Wind SpeedMPH, Mean Wind SpeedMPH, Max Gust SpeedMPH,PrecipitationIn, CloudCover, Events, WindDirDegrees
2012-11-1,67,54,41,26,21,12,55,34,13,29.99,29.86,29.76,10,10,10,27,15,35,0.00,1,,236
2012-11-2,57,42,26,33,24,16,85,52,19,30.18,30.03,29.83,10,10,10,13,6,17,0.00,1,,325
2012-11-3,58,39,19,25,19,13,88,54,19,30.26,30.17,30.09,10,10,10,15,8,20,0.00,0,,253
2012-11-4,58,44,29,33,24,17,85,55,25,30.32,30.19,30.07,10,10,10,15,8,24,0.00,3,,251
2012-11-5,65,48,31,30,28,27,78,51,24,30.27,30.16,30.04,10,10,10,24,14,32,0.00,1,,240
2012-11-6,66,50,33,30,25,21,75,48,20,30.27,30.15,30.06,10,10,10,17,9,21,0.00,0,,249
2012-11-7,69,53,36,28,23,19,59,37,15,30.01,29.88,29.75,10,10,10,28,16,38,0.00,0,,232
2012-11-8,54,41,27,30,26,24,85,60,35,30.01,29.83,29.67,10,10,10,17,9,24,0.00,0,,46
2012-11-9,66,47,28,30,27,19,92,58,23,29.64,29.54,29.36,10,8,0,35,15,45,0.05,5,Fog-Snow,357
2012-11-10,29,13,-3,25,13,-6,92,83,73,30.11,29.74,29.52,10,4,0,14,9,24,0.28,8,Fog-Rain-Snow,13
2012-11-11,22,7,-8,11,3,-9,87,72,56,30.35,30.20,29.94,10,10,10,16,11,22,0.00,0,,247
2012-11-12,34,23,11,17,13,3,67,57,47,30.42,30.33,30.24,10,10,10,29,19,46,0.00,1,,218
2012-11-13,43,37,30,25,22,18,69,59,49,30.32,30.25,30.20,10,10,10,20,14,28,0.00,3,,224
2012-11-14,45,36,26,29,25,22,85,65,45,30.28,30.18,30.09,10,10,10,25,12,31,0.00,4,,240
2012-11-15,47,32,17,28,23,14,92,65,38,30.42,30.31,30.16,10,10,10,20,8,24,0.00,0,,239
2012-11-16,57,45,32,23,20,15,64,43,22,30.17,30.05,29.96,10,10,10,29,15,37,0.00,1,,230
2012-11-17,55,44,33,33,29,23,82,62,41,30.09,30.01,29.89,10,10,10,22,13,28,0.00,1,,221
2012-11-18,57,48,38,32,30,26,70,50,30,30.02,29.89,29.81,10,10,10,33,19,44,0.00,1,,225
2012-11-19,56,45,33,30,28,26,82,57,32,30.15,30.10,30.02,10,10,10,33,17,41,0.00,0,,239
2012-11-20,59,49,39,28,26,23,57,43,28,30.13,30.03,29.92,10,10,10,33,22,43,0.00,0,,217
2012-11-21,61,53,44,24,21,19,39,30,20,29.92,29.81,29.70,10,10,10,40,23,53,0.00,0,,226
2012-11-22,45,29,13,29,15,5,92,56,20,30.58,30.26,29.80,10,10,10,23,9,29,T,3,,284
2012-11-23,49,29,8,16,10,5,76,48,19,30.57,30.39,30.09,10,10,10,30,15,36,0.00,0,,228
2012-11-24,55,43,31,22,16,13,61,40,18,30.07,29.96,29.86,10,10,10,29,13,36,0.00,1,,245
2012-11-25,43,35,27,29,26,22,92,74,56,30.16,29.98,29.86,10,7,1,16,7,18,0.08,7,Snow,27
2012-11-26,32,24,16,25,21,12,96,77,58,30.42,30.24,30.11,10,3,0,16,5,22,0.08,6,Fog-Snow,7
2012-11-27,48,39,29,20,18,15,63,47,31,30.22,30.17,30.07,10,10,10,25,12,32,0.00,0,,237
2012-11-28,55,45,35,18,16,14,52,36,20,30.17,30.05,29.92,10,10,10,28,17,33,0.00,0,,220
2012-11-29,55,47,38,24,21,18,48,37,26,30.00,29.92,29.86,10,10,10,32,17,41,0.00,0,,234
2012-11-30,55,47,39,28,25,22,51,43,35,29.92,29.81,29.69,10,10,10,38,24,46,0.00,0,,221